Time;durP1;ratioP1;P1;durP2;ratioP2;P2;SDS_P1;SDS_P2;PMS_P1;PMS_P2;Temp;Humidity;BMP_temperature;BMP_pressure;BME280_temperature;BME280_humidity;BME280_pressure;Samples;Min_cycle;Max_cycle;Signal;HPM_P1;HPM_P2
2021/04/03 07:01:05;;;;;;;4.15;1.88;;;;;;;13.79;36.69;99387.47;5601702;23;20765;-69
2021/04/03 07:03:34;;;;;;;7.60;2.50;;;;;;;10.98;40.55;99410.78;4934419;29;20044;-68
2021/04/03 07:05:59;;;;;;;4.30;2.43;;;;;;;11.35;40.86;99402.59;4934406;29;20370;-69
2021/04/03 07:08:26;;;;;;;5.63;2.50;;;;;;;9.47;44.24;99417.72;4936841;29;20078;-68
2021/04/03 07:10:52;;;;;;;8.45;2.63;;;;;;;8.86;47.33;99423.03;4937988;29;20027;-68
2021/04/03 07:13:19;;;;;;;5.03;2.72;;;;;;;9.40;45.54;99418.63;4937965;29;20028;-68
2021/04/03 07:15:46;;;;;;;5.28;2.33;;;;;;;8.27;47.71;99431.59;4944718;23;20047;-73
2021/04/03 07:18:11;;;;;;;7.20;2.22;;;;;;;7.72;49.84;99429.69;4935607;29;20035;-72
2021/04/03 07:20:37;;;;;;;8.38;3.08;;;;;;;7.34;51.55;99429.50;4937854;29;20032;-73
2021/04/03 07:23:04;;;;;;;5.82;3.45;;;;;;;8.12;49.29;99426.38;4937793;29;20020;-72
2021/04/03 07:25:40;;;;;;;5.45;2.90;;;;;;;8.55;47.92;99427.34;4936493;29;20110;-73
2021/04/03 07:28:06;;;;;;;5.03;2.75;;;;;;;7.45;50.27;99433.03;4937704;29;20062;-73
2021/04/03 07:30:34;;;;;;;7.88;2.75;;;;;;;7.86;50.59;99440.06;4937538;29;20051;-73
2021/04/03 07:33:08;;;;;;;6.22;2.95;;;;;;;9.00;47.24;99436.81;4937475;29;20110;-73
2021/04/03 07:35:57;;;;;;;4.63;2.65;;;;;;;10.44;43.96;99430.22;4937591;29;20484;-72
2021/04/03 07:38:24;;;;;;;7.45;2.63;;;;;;;9.73;44.62;99440.09;4937686;29;20028;-72
2021/04/03 07:40:54;;;;;;;9.90;2.90;;;;;;;10.97;42.56;99437.56;4937450;29;20051;-72
2021/04/03 07:43:29;;;;;;;4.70;2.50;;;;;;;12.06;39.98;99439.84;4937334;29;20404;-72
2021/04/03 07:45:55;;;;;;;3.80;2.17;;;;;;;10.71;41.93;99444.72;4927443;29;20024;-72
2021/04/03 07:48:41;;;;;;;6.05;2.85;;;;;;;10.68;43.72;99435.22;4936048;29;20094;-72
2021/04/03 07:51:15;;;;;;;6.75;2.60;;;;;;;9.81;44.17;99455.56;4937324;29;20400;-72
2021/04/03 07:53:41;;;;;;;4.07;2.63;;;;;;;14.12;36.71;99432.81;4937394;29;20035;-73
2021/04/03 07:56:08;;;;;;;5.80;3.10;;;;;;;13.49;37.58;99429.75;4937211;29;20032;-72
2021/04/03 07:58:36;;;;;;;12.88;6.15;;;;;;;12.73;38.83;99435.41;4937203;29;20055;-72
2021/04/03 08:01:04;;;;;;;5.43;2.78;;;;;;;11.15;40.89;99456.44;4937079;29;20370;-72
2021/04/03 08:03:31;;;;;;;7.03;3.13;;;;;;;11.98;40.82;99444.28;4937047;29;20031;-72
2021/04/03 08:06:05;;;;;;;7.53;2.83;;;;;;;13.22;38.60;99446.75;4936950;29;20031;-72
2021/04/03 08:08:33;;;;;;;8.77;2.70;;;;;;;9.05;45.73;99469.56;4937037;29;20031;-72
2021/04/03 08:11:14;;;;;;;7.50;2.55;;;;;;;10.14;45.35;99467.50;4936850;29;20031;-72
2021/04/03 08:13:44;;;;;;;6.32;2.50;;;;;;;10.78;42.60;99469.69;4936736;29;20034;-72
2021/04/03 08:16:13;;;;;;;6.78;2.35;;;;;;;9.68;44.96;99478.06;4926133;29;20032;-72
2021/04/03 08:18:41;;;;;;;5.50;2.30;;;;;;;10.54;42.25;99466.44;4936393;29;20532;-72
2021/04/03 08:21:08;;;;;;;5.22;2.30;;;;;;;11.39;41.72;99466.56;4936416;29;20039;-75
2021/04/03 08:23:36;;;;;;;6.13;2.67;;;;;;;13.24;37.78;99466.63;4936765;29;20474;-75
2021/04/03 08:26:02;;;;;;;3.67;2.30;;;;;;;13.19;37.72;99468.44;4935553;29;20070;-75
2021/04/03 08:28:28;;;;;;;5.68;2.20;;;;;;;9.74;42.86;99493.56;4936671;29;20505;-75
2021/04/03 08:30:53;;;;;;;4.72;2.60;;;;;;;7.88;47.99;99500.28;4936559;29;20038;-75
2021/04/03 08:33:19;;;;;;;5.57;2.17;;;;;;;12.93;38.68;99468.88;4936380;29;20520;-75
2021/04/03 08:35:50;;;;;;;8.20;2.30;;;;;;;13.78;36.83;99473.44;4936444;29;20115;-75
2021/04/03 08:38:18;;;;;;;7.82;2.10;;;;;;;16.31;31.33;99460.22;4936456;29;20083;-72
2021/04/03 08:40:44;;;;;;;4.57;2.42;;;;;;;11.95;39.60;99485.88;4936031;29;20032;-75
2021/04/03 08:43:17;;;;;;;5.35;2.33;;;;;;;14.83;34.94;99472.91;4936049;29;20071;-75
2021/04/03 08:45:43;;;;;;;4.13;2.30;;;;;;;10.53;42.79;99498.38;4922823;29;20028;-74
2021/04/03 08:48:10;;;;;;;8.80;2.72;;;;;;;9.01;46.81;99505.72;4932186;29;20028;-74
2021/04/03 08:50:37;;;;;;;7.85;2.95;;;;;;;11.77;40.48;99492.13;4936214;29;20044;-74
2021/04/03 08:53:04;;;;;;;4.57;2.15;;;;;;;15.14;34.07;99483.47;4936139;29;20023;-72
2021/04/03 08:55:30;;;;;;;9.52;2.60;;;;;;;13.36;37.00;99483.78;4930662;29;20024;-70
2021/04/03 08:57:57;;;;;;;3.67;2.30;;;;;;;12.70;36.48;99489.19;4916049;29;20031;-72
2021/04/03 09:00:23;;;;;;;4.22;1.83;;;;;;;14.37;34.55;99485.25;4916763;29;20490;-72
2021/04/03 09:02:53;;;;;;;4.03;2.08;;;;;;;17.99;28.62;99475.56;4922655;29;20091;-72
2021/04/03 09:05:19;;;;;;;4.60;1.88;;;;;;;14.73;32.23;99492.28;4916785;29;20024;-72
2021/04/03 09:07:45;;;;;;;7.03;2.42;;;;;;;12.47;36.38;99505.97;4916743;29;20393;-71
2021/04/03 09:10:14;;;;;;;3.72;2.15;;;;;;;7.99;45.92;99534.75;4915599;29;20072;-71
2021/04/03 09:12:41;;;;;;;3.55;2.47;;;;;;;9.32;43.37;99516.03;4916575;29;20058;-71
2021/04/03 09:15:07;;;;;;;4.90;2.90;;;;;;;9.46;44.20;99519.47;4923857;29;20035;-72
2021/04/03 09:17:33;;;;;;;6.07;2.00;;;;;;;9.59;41.31;99524.66;4916062;29;20031;-72
2021/04/03 09:20:08;;;;;;;5.82;2.25;;;;;;;14.26;33.82;99494.16;4928114;29;20385;-72
2021/04/03 09:22:38;;;;;;;3.30;1.85;;;;;;;16.49;29.45;99491.06;4911511;29;20115;-73
2021/04/03 09:25:09;;;;;;;7.53;1.65;;;;;;;17.81;28.24;99484.09;4931123;29;20024;-72
2021/04/03 09:27:35;;;;;;;3.28;1.75;;;;;;;16.18;28.81;99491.97;4923238;29;20028;-72
2021/04/03 09:30:05;;;;;;;3.72;2.00;;;;;;;19.32;26.59;99483.44;4927254;29;20052;-73
2021/04/03 09:32:50;;;;;;;3.67;1.80;;;;;;;19.96;24.81;99491.16;4931183;29;20028;-73
2021/04/03 09:35:25;;;;;;;2.67;1.73;;;;;;;17.67;28.41;99501.13;4926220;29;20019;-72
2021/04/03 09:37:59;;;;;;;4.90;2.35;;;;;;;18.38;28.03;99488.09;4920481;29;20040;-72
2021/04/03 09:40:45;;;;;;;6.82;2.42;;;;;;;14.41;33.39;99506.91;4900843;29;20418;-71
2021/04/03 09:43:14;;;;;;;6.30;2.47;;;;;;;13.66;36.02;99515.38;4925462;29;20358;-70
2021/04/03 09:45:41;;;;;;;14.82;3.63;;;;;;;13.73;35.09;99511.75;4893773;28;20036;-74
2021/04/03 09:48:08;;;;;;;6.47;2.42;;;;;;;17.25;29.74;99500.00;4911886;29;20064;-74
2021/04/03 09:50:34;;;;;;;4.15;2.03;;;;;;;14.02;34.86;99513.78;4925708;29;20110;-70
2021/04/03 09:53:10;;;;;;;6.53;2.45;;;;;;;10.04;41.73;99540.03;4926905;29;20027;-69
2021/04/03 09:55:36;;;;;;;6.47;2.38;;;;;;;8.60;44.16;99543.56;4928521;29;20087;-70
2021/04/03 09:58:01;;;;;;;6.30;3.13;;;;;;;9.92;43.46;99534.91;4919461;29;20428;-74
2021/04/03 10:00:27;;;;;;;6.97;2.40;;;;;;;13.87;34.66;99509.72;4929779;29;20048;-74
2021/04/03 10:02:53;;;;;;;4.80;2.33;;;;;;;12.19;36.65;99513.28;4928854;29;20047;-74
2021/04/03 10:05:18;;;;;;;5.38;2.40;;;;;;;12.60;36.72;99512.72;4927833;29;20592;-70
2021/04/03 10:07:44;;;;;;;7.55;2.88;;;;;;;12.80;36.17;99506.38;4920991;29;20036;-72
2021/04/03 10:10:09;;;;;;;6.70;2.30;;;;;;;12.90;36.20;99518.34;4931347;29;20102;-74
2021/04/03 10:12:34;;;;;;;5.45;2.95;;;;;;;10.26;41.42;99533.09;4920322;29;20071;-74
2021/04/03 10:15:00;;;;;;;5.80;2.28;;;;;;;14.82;33.59;99502.50;4924796;29;20473;-74
2021/04/03 10:17:25;;;;;;;6.88;2.38;;;;;;;16.57;29.91;99489.03;4932959;29;20023;-69
2021/04/03 10:19:50;;;;;;;6.97;2.80;;;;;;;16.23;31.25;99493.59;4918844;29;20055;-74
2021/04/03 10:22:16;;;;;;;6.18;3.38;;;;;;;13.08;36.04;99510.25;4929680;29;20027;-74
2021/04/03 10:24:41;;;;;;;8.70;2.70;;;;;;;13.75;35.20;99510.00;4916357;29;20027;-75
2021/04/03 10:27:08;;;;;;;6.15;2.20;;;;;;;14.40;34.70;99499.94;4930411;29;20020;-74
2021/04/03 10:29:33;;;;;;;5.40;2.30;;;;;;;10.80;39.06;99527.59;4922050;29;20533;-75
2021/04/03 10:31:59;;;;;;;4.88;2.15;;;;;;;11.56;38.97;99516.56;4931012;29;20119;-75
2021/04/03 10:34:24;;;;;;;4.55;2.22;;;;;;;14.20;34.71;99507.34;4901951;29;20106;-75
2021/04/03 10:36:51;;;;;;;6.22;2.13;;;;;;;18.28;27.68;99473.63;4927792;29;20028;-75
2021/04/03 10:39:17;;;;;;;8.60;3.05;;;;;;;15.90;32.42;99491.03;4924380;29;20059;-75
2021/04/03 10:41:42;;;;;;;4.72;2.40;;;;;;;15.56;30.72;99496.28;4920773;29;20028;-75
2021/04/03 10:44:08;;;;;;;9.52;2.90;;;;;;;11.46;37.33;99514.94;4932656;29;20079;-75
2021/04/03 10:46:34;;;;;;;5.80;2.97;;;;;;;10.59;40.55;99519.94;4929893;29;20019;-75
2021/04/03 10:48:59;;;;;;;3.63;2.30;;;;;;;14.37;33.88;99490.47;4922920;29;20033;-70
2021/04/03 10:51:25;;;;;;;4.30;2.20;;;;;;;17.61;28.52;99496.13;4935386;29;20138;-69
2021/04/03 10:53:51;;;;;;;8.95;2.03;;;;;;;18.76;26.87;99478.75;4923369;29;20032;-69
2021/04/03 10:56:18;;;;;;;4.47;1.80;;;;;;;19.68;24.96;99469.66;4934839;29;20441;-69
2021/04/03 10:58:46;;;;;;;5.68;1.90;;;;;;;17.16;27.06;99485.44;4924845;29;20052;-69
2021/04/03 11:01:12;;;;;;;4.93;1.90;;;;;;;17.27;28.31;99479.88;4928207;29;20107;-69
2021/04/03 11:03:37;;;;;;;7.32;4.28;;;;;;;18.83;25.37;99476.72;4931965;29;20102;-70
2021/04/03 11:06:03;;;;;;;6.20;2.70;;;;;;;17.55;26.84;99491.09;4922273;29;20024;-69
2021/04/03 11:08:29;;;;;;;8.00;5.50;;;;;;;18.52;25.11;99477.94;4933866;29;20035;-69
2021/04/03 11:10:55;;;;;;;8.07;3.40;;;;;;;20.31;24.38;99474.69;4926029;29;20020;-69
2021/04/03 11:13:20;;;;;;;3.42;2.33;;;;;;;19.33;25.94;99490.38;4926975;29;20035;-70
2021/04/03 11:15:46;;;;;;;6.25;2.00;;;;;;;18.30;24.99;99492.78;4923666;29;20040;-69
2021/04/03 11:18:11;;;;;;;3.20;2.08;;;;;;;17.33;26.04;99506.69;4921127;29;20067;-71
2021/04/03 11:20:38;;;;;;;7.10;1.95;;;;;;;15.62;29.16;99507.47;4932678;29;20389;-69
2021/04/03 11:23:03;;;;;;;6.28;2.00;;;;;;;14.95;30.79;99509.16;4926986;29;20028;-69
2021/04/03 11:25:29;;;;;;;7.13;1.80;;;;;;;11.97;35.43;99520.47;4925765;29;20024;-69
2021/04/03 11:27:54;;;;;;;6.22;2.13;;;;;;;12.08;36.48;99516.00;4933637;29;20034;-69
2021/04/03 11:30:20;;;;;;;5.40;2.25;;;;;;;11.00;37.87;99520.53;4921711;29;20374;-69
2021/04/03 11:32:47;;;;;;;4.70;2.63;;;;;;;10.36;39.48;99520.94;4931396;29;20050;-69
2021/04/03 11:35:14;;;;;;;5.97;2.65;;;;;;;10.16;38.67;99530.50;4928093;29;20023;-69
2021/04/03 11:37:40;;;;;;;6.00;2.35;;;;;;;9.87;39.74;99526.31;4924019;29;20035;-69
2021/04/03 11:40:08;;;;;;;5.03;2.40;;;;;;;9.61;40.30;99533.25;4932806;29;20028;-69
2021/04/03 11:42:33;;;;;;;6.45;2.40;;;;;;;10.57;39.03;99519.09;4922671;29;20020;-68
2021/04/03 11:44:59;;;;;;;5.65;2.40;;;;;;;13.65;32.54;99503.25;4927511;29;20493;-68
2021/04/03 11:47:24;;;;;;;4.15;2.10;;;;;;;17.44;26.48;99482.75;4935576;29;20055;-69
2021/04/03 11:49:58;;;;;;;4.78;1.80;;;;;;;18.80;25.15;99474.22;4922625;29;20026;-69
2021/04/03 11:52:28;;;;;;;6.35;1.55;;;;;;;19.97;22.29;99465.72;4936935;29;20042;-69
2021/04/03 11:54:53;;;;;;;6.53;1.60;;;;;;;18.01;24.28;99480.75;4928874;29;20016;-73
2021/04/03 11:57:19;;;;;;;3.20;1.80;;;;;;;16.41;26.76;99480.81;4928485;29;20038;-74
2021/04/03 11:59:45;;;;;;;6.47;2.05;;;;;;;17.32;25.58;99478.78;4921964;29;20111;-73
2021/04/03 12:02:11;;;;;;;6.13;1.65;;;;;;;13.08;29.64;99486.84;4933748;29;20035;-73
2021/04/03 12:04:36;;;;;;;2.90;1.83;;;;;;;11.84;33.01;99495.53;4921466;29;20063;-73
2021/04/03 12:07:02;;;;;;;5.93;1.60;;;;;;;11.61;34.34;99489.72;4928742;29;20032;-73
2021/04/03 12:09:27;;;;;;;3.15;1.88;;;;;;;11.49;33.91;99482.91;4929160;29;20112;-73
2021/04/03 12:11:53;;;;;;;5.85;2.40;;;;;;;10.42;35.41;99484.63;4921819;29;20133;-75
2021/04/03 12:14:18;;;;;;;5.07;2.35;;;;;;;11.39;34.36;99482.13;4930100;29;20062;-75
2021/04/03 12:16:44;;;;;;;4.97;2.28;;;;;;;11.69;32.94;99472.31;4929661;29;20063;-73
2021/04/03 12:19:09;;;;;;;4.93;2.38;;;;;;;13.13;31.03;99464.19;4927589;29;20036;-70
2021/04/03 12:21:34;;;;;;;7.43;1.77;;;;;;;12.08;32.79;99469.25;4929883;29;20028;-70
2021/04/03 12:24:00;;;;;;;3.05;1.60;;;;;;;12.45;32.89;99468.75;4936308;29;20031;-70
2021/04/03 12:26:25;;;;;;;2.92;1.65;;;;;;;11.75;32.73;99469.66;4920838;29;20028;-70
2021/04/03 12:28:50;;;;;;;3.88;1.83;;;;;;;11.40;33.94;99468.28;4929664;29;20107;-69
2021/04/03 12:31:16;;;;;;;5.30;1.73;;;;;;;11.23;34.06;99465.00;4927381;29;20040;-74
2021/04/03 12:33:41;;;;;;;3.30;1.70;;;;;;;11.27;35.42;99461.53;4923094;29;20432;-73
2021/04/03 12:36:08;;;;;;;5.85;2.00;;;;;;;11.80;34.24;99473.06;4932982;29;20051;-73
2021/04/03 12:38:34;;;;;;;2.60;1.77;;;;;;;10.82;36.14;99466.22;4921826;29;20020;-73
2021/04/03 12:40:59;;;;;;;2.92;1.92;;;;;;;11.03;36.47;99467.78;4928396;29;20615;-74
2021/04/03 12:43:25;;;;;;;7.05;2.20;;;;;;;10.20;37.48;99472.63;4926978;29;20028;-72
2021/04/03 12:45:50;;;;;;;5.53;2.03;;;;;;;9.61;37.91;99486.69;4925564;29;20436;-73
2021/04/03 12:48:15;;;;;;;5.90;2.25;;;;;;;9.97;38.87;99478.81;4932797;29;20028;-75
2021/04/03 12:50:41;;;;;;;5.30;2.05;;;;;;;10.04;38.49;99480.47;4922474;29;20023;-75
2021/04/03 12:53:06;;;;;;;6.32;2.47;;;;;;;9.46;38.87;99472.91;4935931;29;20024;-74
2021/04/03 12:55:31;;;;;;;3.00;1.65;;;;;;;9.94;39.20;99470.19;4923909;29;20103;-74
2021/04/03 12:57:57;;;;;;;4.97;2.08;;;;;;;10.26;38.56;99472.66;4931114;29;20019;-75
2021/04/03 13:00:23;;;;;;;4.25;1.70;;;;;;;10.48;37.19;99469.03;4920146;29;20457;-75
2021/04/03 13:02:48;;;;;;;2.15;1.95;;;;;;;10.89;35.56;99462.72;4929252;29;20031;-72
2021/04/03 13:05:14;;;;;;;4.90;2.10;;;;;;;11.44;34.24;99464.78;4925146;29;20024;-73
2021/04/03 13:07:39;;;;;;;6.45;1.90;;;;;;;11.98;33.61;99457.25;4922625;29;20024;-75
2021/04/03 13:10:05;;;;;;;3.17;1.50;;;;;;;11.42;33.05;99463.94;4931044;29;20035;-71
2021/04/03 13:12:30;;;;;;;6.03;2.05;;;;;;;11.43;32.92;99463.06;4920675;29;20055;-71
2021/04/03 13:14:56;;;;;;;5.65;1.77;;;;;;;11.17;33.75;99459.84;4954982;23;20040;-69
2021/04/03 13:17:21;;;;;;;3.65;1.52;;;;;;;11.18;33.87;99452.09;4932480;29;20028;-70
2021/04/03 13:19:46;;;;;;;3.10;1.73;;;;;;;11.68;34.64;99447.22;4917362;29;20477;-69
2021/04/03 13:22:12;;;;;;;4.15;1.92;;;;;;;11.48;34.44;99443.13;4930077;29;20040;-69
2021/04/03 13:24:37;;;;;;;3.90;1.90;;;;;;;11.71;35.27;99447.19;4931444;29;20032;-69
2021/04/03 13:27:03;;;;;;;6.97;2.13;;;;;;;11.59;33.82;99443.00;4916499;29;20066;-74
2021/04/03 13:29:28;;;;;;;8.05;1.98;;;;;;;11.30;35.23;99445.91;4916148;29;20024;-68
2021/04/03 13:31:53;;;;;;;5.32;2.28;;;;;;;10.94;37.71;99442.78;4931344;29;20413;-68
2021/04/03 13:34:19;;;;;;;4.20;2.10;;;;;;;10.47;36.90;99443.16;4919560;29;20373;-70
2021/04/03 13:36:44;;;;;;;10.25;2.10;;;;;;;11.00;35.79;99442.72;4929294;29;20062;-70
2021/04/03 13:39:12;;;;;;;5.13;1.65;;;;;;;11.33;35.47;99428.56;4925611;29;20023;-70
2021/04/03 13:41:38;;;;;;;2.75;1.60;;;;;;;11.39;37.18;99434.56;4921965;29;20032;-70
2021/04/03 13:44:03;;;;;;;6.03;3.40;;;;;;;11.56;34.04;99425.75;4929773;29;20474;-70
2021/04/03 13:46:29;;;;;;;5.25;2.40;;;;;;;11.47;34.66;99425.84;4925890;29;20140;-70
2021/04/03 13:48:54;;;;;;;4.30;1.98;;;;;;;11.82;34.74;99429.78;4927958;29;20020;-70
2021/04/03 13:51:19;;;;;;;6.20;2.03;;;;;;;11.42;34.73;99430.22;4925786;29;20023;-72
2021/04/03 13:53:45;;;;;;;5.53;2.22;;;;;;;10.11;37.45;99432.13;4935098;29;20043;-71
2021/04/03 13:56:10;;;;;;;6.45;1.73;;;;;;;10.00;37.63;99439.94;4919137;29;20039;-71
2021/04/03 13:58:35;;;;;;;6.05;2.72;;;;;;;10.13;37.34;99445.06;4930095;29;20028;-71
2021/04/03 14:01:01;;;;;;;4.18;1.77;;;;;;;10.28;36.46;99439.81;4924080;29;20147;-71
2021/04/03 14:03:26;;;;;;;6.25;2.00;;;;;;;10.47;36.77;99425.88;4923297;29;20028;-71
2021/04/03 14:05:51;;;;;;;2.28;1.80;;;;;;;10.35;36.77;99425.09;4930560;29;20031;-71
2021/04/03 14:08:17;;;;;;;4.30;1.73;;;;;;;10.77;36.84;99423.91;4918918;29;20485;-68
2021/04/03 14:10:42;;;;;;;2.75;1.95;;;;;;;11.13;35.87;99427.06;4922588;29;20020;-70
2021/04/03 14:13:08;;;;;;;4.07;1.95;;;;;;;11.74;35.56;99419.44;4930132;29;20028;-70
2021/04/03 14:15:34;;;;;;;7.45;1.98;;;;;;;12.60;34.75;99415.69;4928001;29;20724;-70
2021/04/03 14:17:59;;;;;;;5.82;2.13;;;;;;;13.35;32.02;99415.28;4906392;29;20040;-71
2021/04/03 14:20:25;;;;;;;3.08;1.55;;;;;;;13.52;30.89;99404.50;4907880;29;20520;-71
2021/04/03 14:22:50;;;;;;;3.35;1.55;;;;;;;12.12;33.02;99412.06;4907241;29;20372;-72
2021/04/03 14:25:16;;;;;;;4.18;1.92;;;;;;;13.17;31.68;99401.72;4907186;29;20043;-73
2021/04/03 14:27:41;;;;;;;5.72;2.30;;;;;;;13.29;31.89;99401.50;4907331;29;20828;-73
2021/04/03 14:30:08;;;;;;;5.63;2.00;;;;;;;13.39;29.86;99408.22;4907395;29;20118;-63
2021/04/03 14:32:33;;;;;;;2.67;1.58;;;;;;;13.39;30.89;99403.03;4907262;29;20032;-65
2021/04/03 14:34:59;;;;;;;2.72;1.70;;;;;;;13.05;30.85;99414.06;4908346;29;20036;-67
2021/04/03 14:37:24;;;;;;;4.22;1.70;;;;;;;12.76;31.65;99405.88;4907784;29;20031;-67
2021/04/03 14:39:50;;;;;;;7.22;1.60;;;;;;;11.99;33.89;99407.06;4907178;29;20024;-68
2021/04/03 14:42:15;;;;;;;3.47;1.70;;;;;;;11.70;33.12;99409.13;4907033;29;20106;-73
2021/04/03 14:44:40;;;;;;;4.50;1.90;;;;;;;11.62;33.09;99408.38;4907060;29;20095;-73
2021/04/03 14:47:06;;;;;;;3.17;2.03;;;;;;;10.96;33.59;99414.25;4905994;29;20043;-69
2021/04/03 14:49:31;;;;;;;9.07;4.65;;;;;;;11.47;34.43;99412.88;4906943;29;20482;-70
2021/04/03 14:51:56;;;;;;;8.32;3.25;;;;;;;11.24;33.25;99412.25;4904984;29;20060;-69
2021/04/03 14:54:21;;;;;;;3.97;1.75;;;;;;;10.91;33.49;99422.06;4895489;29;20043;-70
2021/04/03 14:56:47;;;;;;;2.38;1.70;;;;;;;10.94;34.68;99410.81;4895575;29;20769;-70
2021/04/03 14:59:12;;;;;;;6.75;2.05;;;;;;;11.36;33.43;99399.13;4896911;29;21428;-71
2021/04/03 15:01:38;;;;;;;4.30;1.73;;;;;;;11.93;33.76;99399.31;4895258;29;20032;-71
2021/04/03 15:04:04;;;;;;;5.85;1.88;;;;;;;11.89;32.83;99395.06;4887437;29;20565;-71
2021/04/03 15:06:29;;;;;;;2.63;1.83;;;;;;;11.81;33.50;99397.75;4886101;29;20028;-71
2021/04/03 15:08:55;;;;;;;2.50;1.73;;;;;;;12.26;31.68;99395.41;4887274;29;20028;-69
2021/04/03 15:11:21;;;;;;;4.50;1.50;;;;;;;11.57;33.35;99396.31;4885801;29;20028;-69
2021/04/03 15:13:46;;;;;;;3.47;1.83;;;;;;;10.88;33.13;99401.38;4886363;29;20397;-69
2021/04/03 15:16:11;;;;;;;4.00;1.90;;;;;;;11.24;32.81;99394.09;4886824;29;20060;-71
2021/04/03 15:18:37;;;;;;;8.32;2.35;;;;;;;10.89;33.43;99403.09;4886546;29;20035;-76
2021/04/03 15:21:02;;;;;;;7.30;2.47;;;;;;;10.37;34.03;99403.50;4887192;29;20509;-69
2021/04/03 15:23:28;;;;;;;4.95;1.88;;;;;;;10.81;32.96;99394.50;4893572;29;20457;-71
2021/04/03 15:25:53;;;;;;;4.20;2.70;;;;;;;11.12;33.64;99400.28;4891614;29;20039;-71
2021/04/03 15:28:19;;;;;;;4.75;1.85;;;;;;;11.18;32.53;99397.63;4891169;29;20071;-71
2021/04/03 15:30:44;;;;;;;3.72;1.85;;;;;;;11.12;32.08;99404.59;4895657;29;20059;-71
2021/04/03 15:33:09;;;;;;;4.30;1.77;;;;;;;10.91;33.02;99393.56;4900738;29;20132;-71
2021/04/03 15:35:35;;;;;;;5.43;1.88;;;;;;;10.79;33.61;99391.94;4904146;29;20107;-71
2021/04/03 15:38:00;;;;;;;4.43;1.67;;;;;;;10.82;33.60;99391.03;4902124;29;20044;-72
2021/04/03 15:40:26;;;;;;;3.17;1.90;;;;;;;11.04;34.66;99402.94;4902628;29;20043;-72
2021/04/03 15:42:51;;;;;;;6.20;2.03;;;;;;;10.86;34.49;99392.75;4900554;29;20051;-70
2021/04/03 15:45:16;;;;;;;6.88;1.60;;;;;;;10.84;34.40;99394.50;4899161;29;20075;-70
2021/04/03 15:47:42;;;;;;;6.15;1.98;;;;;;;10.55;33.94;99387.81;4899928;29;20035;-69
2021/04/03 15:50:07;;;;;;;4.25;2.10;;;;;;;10.30;34.82;99394.06;4898648;29;20067;-70
2021/04/03 15:52:33;;;;;;;4.30;2.30;;;;;;;10.55;34.72;99393.00;4899475;29;20032;-69
2021/04/03 15:54:58;;;;;;;6.18;2.22;;;;;;;10.62;34.59;99393.81;4907791;29;20088;-70
2021/04/03 15:57:23;;;;;;;2.60;1.83;;;;;;;10.66;35.05;99389.47;4910145;29;20091;-70
2021/04/03 15:59:49;;;;;;;4.30;1.70;;;;;;;10.78;35.32;99391.94;4909758;29;20028;-70
2021/04/03 16:02:14;;;;;;;4.25;1.73;;;;;;;10.76;35.04;99385.91;4909698;29;20036;-69
2021/04/03 16:04:39;;;;;;;5.68;2.10;;;;;;;10.76;34.31;99386.78;4909641;29;20106;-70
2021/04/03 16:07:05;;;;;;;4.90;2.08;;;;;;;10.55;34.95;99390.41;4909800;29;20043;-72
2021/04/03 16:09:30;;;;;;;3.92;1.73;;;;;;;10.75;34.36;99389.38;4899899;29;20032;-71
2021/04/03 16:11:56;;;;;;;3.88;1.85;;;;;;;10.58;34.83;99392.09;4898997;29;20032;-71
2021/04/03 16:14:22;;;;;;;3.42;1.65;;;;;;;10.49;35.03;99393.06;4892173;29;20036;-71
2021/04/03 16:16:47;;;;;;;8.57;1.98;;;;;;;10.46;35.17;99393.06;4888589;29;20060;-70
2021/04/03 16:19:12;;;;;;;6.25;1.83;;;;;;;10.62;35.03;99393.81;4889931;29;20028;-71
2021/04/03 16:21:38;;;;;;;4.47;1.90;;;;;;;10.41;35.08;99396.56;4888719;29;20088;-71
2021/04/03 16:24:04;;;;;;;3.67;1.92;;;;;;;10.61;35.10;99399.88;4889697;29;20036;-71
2021/04/03 16:26:29;;;;;;;4.32;1.83;;;;;;;10.57;34.93;99399.91;4880687;29;20568;-71
2021/04/03 16:28:55;;;;;;;4.57;1.88;;;;;;;10.58;35.63;99396.44;4881529;29;20063;-71
2021/04/03 16:31:20;;;;;;;5.60;2.22;;;;;;;10.47;35.59;99399.13;4877241;29;20036;-71
2021/04/03 16:33:45;;;;;;;5.50;1.92;;;;;;;10.52;36.31;99394.75;4881234;29;20032;-72
2021/04/03 16:36:11;;;;;;;5.93;2.15;;;;;;;10.66;35.24;99389.47;4879886;29;20028;-72
2021/04/03 16:38:36;;;;;;;5.88;2.03;;;;;;;10.39;35.11;99393.13;4888906;29;21970;-71
2021/04/03 16:41:01;;;;;;;4.07;1.90;;;;;;;10.37;35.75;99398.31;4892914;29;20040;-71
2021/04/03 16:43:27;;;;;;;5.55;2.05;;;;;;;10.65;35.20;99392.94;4895925;29;20090;-71
2021/04/03 16:45:52;;;;;;;4.82;1.80;;;;;;;10.37;36.75;99398.31;4903335;29;20036;-72
2021/04/03 16:48:18;;;;;;;2.63;1.60;;;;;;;10.64;35.02;99406.78;4903011;29;20032;-71
2021/04/03 16:50:46;;;;;;;3.20;2.00;;;;;;;10.43;35.01;99398.28;4903240;29;20028;-71
2021/04/03 16:53:11;;;;;;;2.58;1.50;;;;;;;10.54;34.86;99401.66;4902726;29;20127;-71
2021/04/03 16:55:36;;;;;;;2.47;1.50;;;;;;;10.51;35.17;99393.91;4905084;29;20099;-71
2021/04/03 16:58:02;;;;;;;7.35;2.25;;;;;;;10.44;36.20;99396.53;4908841;29;20119;-72
2021/04/03 17:00:27;;;;;;;3.25;2.08;;;;;;;10.01;35.79;99405.44;4908704;29;20490;-71
2021/04/03 17:02:53;;;;;;;4.05;1.95;;;;;;;9.99;35.67;99391.63;4908619;29;20028;-71
2021/04/03 17:05:18;;;;;;;2.13;1.67;;;;;;;9.97;36.07;99393.38;4908593;29;20062;-71
2021/04/03 17:07:43;;;;;;;6.68;1.75;;;;;;;10.05;36.46;99396.75;4908591;29;20035;-71
2021/04/03 17:10:09;;;;;;;6.50;1.90;;;;;;;10.12;35.79;99396.75;4908412;29;20039;-72
2021/04/03 17:12:35;;;;;;;3.08;1.70;;;;;;;9.91;35.92;99403.78;4908244;29;20713;-71
2021/04/03 17:15:00;;;;;;;3.83;1.80;;;;;;;9.83;36.38;99395.19;4908435;29;20043;-71
2021/04/03 17:17:25;;;;;;;4.15;1.60;;;;;;;9.89;36.58;99405.50;4908644;29;20101;-71
2021/04/03 17:19:51;;;;;;;5.80;1.95;;;;;;;9.96;37.04;99402.03;4908450;29;20028;-71
2021/04/03 17:22:16;;;;;;;4.47;1.73;;;;;;;9.83;36.67;99402.94;4908063;29;20038;-71
2021/04/03 17:24:41;;;;;;;5.35;1.80;;;;;;;9.79;36.71;99409.84;4908252;29;20028;-72
2021/04/03 17:27:07;;;;;;;5.38;1.92;;;;;;;9.65;37.33;99411.63;4908204;29;21315;-71
2021/04/03 17:29:32;;;;;;;7.18;2.30;;;;;;;9.64;37.74;99414.25;4908141;29;20101;-71
2021/04/03 17:31:58;;;;;;;4.75;1.90;;;;;;;9.51;37.66;99414.28;4907889;29;20035;-71
2021/04/03 17:34:23;;;;;;;4.32;2.20;;;;;;;9.47;38.26;99422.91;4906896;29;20032;-71
2021/04/03 17:36:49;;;;;;;5.03;2.50;;;;;;;9.63;37.98;99422.88;4908148;29;20043;-71
2021/04/03 17:39:14;;;;;;;5.50;3.15;;;;;;;9.60;37.97;99422.88;4907943;29;20039;-72
2021/04/03 17:41:39;;;;;;;4.13;2.90;;;;;;;9.52;38.97;99421.19;4907780;29;20032;-72
2021/04/03 17:44:05;;;;;;;5.95;2.40;;;;;;;9.69;37.75;99425.44;4908035;29;20125;-71
2021/04/03 17:46:31;;;;;;;6.43;2.22;;;;;;;9.62;38.36;99423.72;4908079;29;20516;-71
2021/04/03 17:48:57;;;;;;;5.82;2.10;;;;;;;9.56;38.44;99431.50;4907847;29;20036;-71
2021/04/03 17:51:23;;;;;;;10.15;2.00;;;;;;;9.40;38.15;99426.38;4907239;29;20409;-71
2021/04/03 17:53:48;;;;;;;4.93;2.00;;;;;;;9.35;38.84;99432.44;4907298;29;20055;-72
2021/04/03 17:56:15;;;;;;;5.07;1.77;;;;;;;9.38;38.94;99428.13;4907717;29;20040;-71
2021/04/03 17:58:40;;;;;;;5.00;2.03;;;;;;;9.32;39.84;99435.88;4907754;29;20032;-71
2021/04/03 18:01:05;;;;;;;4.97;2.03;;;;;;;9.29;40.21;99429.88;4907824;29;20036;-71
2021/04/03 18:03:31;;;;;;;3.50;1.90;;;;;;;9.31;40.33;99434.16;4907506;29;21050;-71
2021/04/03 18:05:58;;;;;;;3.42;1.83;;;;;;;9.21;40.57;99435.91;4907643;29;20035;-71
2021/04/03 18:08:23;;;;;;;8.82;2.00;;;;;;;9.19;39.83;99435.06;4907099;29;20036;-73
2021/04/03 18:10:48;;;;;;;4.18;1.70;;;;;;;9.15;40.16;99435.06;4907703;29;20031;-71
2021/04/03 18:13:14;;;;;;;4.82;2.10;;;;;;;9.16;39.99;99436.78;4907537;29;20618;-70
2021/04/03 18:15:39;;;;;;;6.30;2.35;;;;;;;9.18;40.24;99445.38;4907384;29;20043;-71
2021/04/03 18:18:05;;;;;;;8.20;2.45;;;;;;;9.12;40.86;99445.41;4907524;29;20031;-70
2021/04/03 18:20:30;;;;;;;5.82;2.35;;;;;;;9.12;41.16;99442.81;4907779;29;21489;-70
2021/04/03 18:22:58;;;;;;;7.32;2.50;;;;;;;9.14;41.69;99444.56;4906046;29;20494;-71
2021/04/03 18:25:23;;;;;;;9.88;2.00;;;;;;;9.06;40.57;99448.88;4907443;29;20032;-70
2021/04/03 18:27:49;;;;;;;4.55;1.90;;;;;;;9.06;40.64;99450.59;4907336;29;20047;-71
2021/04/03 18:30:17;;;;;;;5.30;2.60;;;;;;;9.02;41.67;99450.59;4907097;29;20039;-71